Time;durP1;ratioP1;P1;durP2;ratioP2;P2;SDS_P1;SDS_P2;PMS_P1;PMS_P2;Temp;Humidity;BMP_temperature;BMP_pressure;BME280_temperature;BME280_humidity;BME280_pressure;Samples;Min_cycle;Max_cycle;Signal;HPM_P1;HPM_P2
2022/10/19 00:00:18;;;;;;;23.92;5.30;;;;;;;;;;4995420;28;20030;-75
2022/10/19 00:02:44;;;;;;;21.63;5.15;;;;;;;;;;4997620;28;20022;-75
2022/10/19 00:05:09;;;;;;;19.58;4.35;;;;;;;;;;4997774;28;20034;-75
2022/10/19 00:07:35;;;;;;;14.43;4.68;;;;;;;;;;4997767;28;20041;-75
2022/10/19 00:10:00;;;;;;;15.15;4.88;;;;;;;;;;4997434;28;20461;-75
2022/10/19 00:12:26;;;;;;;16.92;5.25;;;;;;;;;;4980021;28;20031;-75
2022/10/19 00:14:51;;;;;;;17.42;4.97;;;;;;;;;;4997602;28;20030;-75
2022/10/19 00:17:16;;;;;;;15.40;5.28;;;;;;;;;;4997576;28;20462;-75
2022/10/19 00:19:42;;;;;;;17.05;4.75;;;;;;;;;;4997298;28;20443;-75
2022/10/19 00:22:07;;;;;;;14.65;4.60;;;;;;;;;;4979954;28;20073;-75
2022/10/19 00:24:32;;;;;;;17.05;4.85;;;;;;;;;;4997251;28;20026;-75
2022/10/19 00:26:58;;;;;;;19.20;4.78;;;;;;;;;;4979702;28;20398;-75
2022/10/19 00:29:24;;;;;;;21.65;5.05;;;;;;;;;;4997198;28;20041;-75
2022/10/19 00:31:49;;;;;;;14.57;4.40;;;;;;;;;;4997008;28;20386;-75
2022/10/19 00:34:15;;;;;;;18.20;5.28;;;;;;;;;;4997103;28;20482;-75
2022/10/19 00:36:41;;;;;;;17.65;4.80;;;;;;;;;;4996927;28;20058;-75
2022/10/19 00:39:10;;;;;;;18.05;4.80;;;;;;;;;;4979825;28;20030;-75
2022/10/19 00:41:37;;;;;;;16.92;4.78;;;;;;;;;;4997139;28;20026;-75
2022/10/19 00:44:24;;;;;;;17.67;5.03;;;;;;;;;;4996853;28;20561;-74
2022/10/19 00:46:50;;;;;;;15.82;4.50;;;;;;;;;;4947393;28;20560;-75
2022/10/19 00:49:25;;;;;;;12.65;4.50;;;;;;;;;;4996802;28;20105;-75
2022/10/19 00:51:54;;;;;;;16.67;4.30;;;;;;;;;;4996627;28;20022;-75
2022/10/19 00:54:21;;;;;;;17.50;4.68;;;;;;;;;;4996900;28;20029;-75
2022/10/19 00:56:50;;;;;;;13.27;4.50;;;;;;;;;;4996666;28;20057;-75
2022/10/19 00:59:19;;;;;;;14.57;4.70;;;;;;;;;;4996720;28;20030;-75
2022/10/19 01:01:45;;;;;;;15.52;4.80;;;;;;;;;;4996685;28;20117;-75
2022/10/19 01:04:11;;;;;;;18.77;4.65;;;;;;;;;;4996600;28;20019;-76
2022/10/19 01:06:38;;;;;;;14.80;4.15;;;;;;;;;;4996413;28;20023;-75
2022/10/19 01:09:04;;;;;;;12.93;4.15;;;;;;;;;;4996326;28;20084;-75
2022/10/19 01:11:46;;;;;;;12.98;4.43;;;;;;;;;;4995784;28;20486;-75
2022/10/19 01:14:17;;;;;;;19.27;4.70;;;;;;;;;;4996596;28;20057;-75
2022/10/19 01:16:57;;;;;;;15.85;4.55;;;;;;;;;;4996665;28;20041;-75
2022/10/19 01:19:56;;;;;;;18.65;5.30;;;;;;;;;;4996283;28;20030;-75
2022/10/19 01:22:46;;;;;;;12.57;4.78;;;;;;;;;;4996406;28;20042;-75
2022/10/19 01:25:27;;;;;;;21.07;5.23;;;;;;;;;;4978639;28;20037;-75
2022/10/19 01:28:25;;;;;;;;;;;;;;;;;;4978934;28;20057;-75
2022/10/19 01:31:06;;;;;;;17.00;4.50;;;;;;;;;;4952580;28;20332;-75
2022/10/19 01:33:41;;;;;;;19.85;4.50;;;;;;;;;;4996334;28;20026;-75
2022/10/19 01:36:09;;;;;;;21.30;5.43;;;;;;;;;;4978171;28;20050;-75
2022/10/19 01:38:51;;;;;;;18.90;4.85;;;;;;;;;;4995932;28;20172;-75
2022/10/19 01:41:34;;;;;;;22.30;5.22;;;;;;;;;;4995786;28;20048;-75
2022/10/19 01:44:16;;;;;;;21.02;4.85;;;;;;;;;;4996025;28;20081;-75
2022/10/19 01:47:07;;;;;;;24.27;5.82;;;;;;;;;;4995896;28;20109;-75
2022/10/19 01:49:41;;;;;;;;;;;;;;;;;;4996158;28;20053;-75
2022/10/19 01:52:09;;;;;;;27.58;4.63;;;;;;;;;;4995840;28;19913;-75
2022/10/19 01:54:39;;;;;;;21.80;4.80;;;;;;;;;;4995849;28;20117;-75
2022/10/19 01:57:07;;;;;;;17.50;4.88;;;;;;;;;;4995368;28;20100;-75
2022/10/19 01:59:34;;;;;;;15.88;4.90;;;;;;;;;;4978041;28;20040;-75
2022/10/19 02:02:02;;;;;;;20.02;5.07;;;;;;;;;;4995619;28;20022;-75
2022/10/19 02:04:29;;;;;;;22.08;4.82;;;;;;;;;;4995536;28;20046;-75
2022/10/19 02:06:55;;;;;;;27.85;5.68;;;;;;;;;;4995422;28;20026;-75
2022/10/19 02:09:21;;;;;;;20.02;5.18;;;;;;;;;;4995397;28;20109;-75
2022/10/19 02:11:50;;;;;;;23.23;4.97;;;;;;;;;;4995776;28;20054;-75
2022/10/19 02:14:19;;;;;;;20.38;4.55;;;;;;;;;;4977858;28;20050;-75
2022/10/19 02:16:49;;;;;;;21.88;5.20;;;;;;;;;;4995373;28;20018;-75
2022/10/19 02:19:16;;;;;;;23.92;5.07;;;;;;;;;;4995189;28;20029;-75
2022/10/19 02:21:42;;;;;;;20.13;5.38;;;;;;;;;;4977688;28;20084;-75
2022/10/19 02:24:07;;;;;;;18.95;5.20;;;;;;;;;;4994442;28;20026;-75
2022/10/19 02:26:33;;;;;;;23.73;5.07;;;;;;;;;;4994951;28;20026;-75
2022/10/19 02:28:58;;;;;;;17.02;5.05;;;;;;;;;;4995100;28;20478;-75
2022/10/19 02:31:25;;;;;;;24.48;5.07;;;;;;;;;;4995023;28;20410;-74
2022/10/19 02:33:50;;;;;;;27.60;5.38;;;;;;;;;;4994794;28;20028;-74
2022/10/19 02:36:17;;;;;;;23.65;5.18;;;;;;;;;;4995032;28;20410;-75
2022/10/19 02:38:43;;;;;;;21.23;5.45;;;;;;;;;;4977320;28;20494;-75
2022/10/19 02:41:26;;;;;;;20.35;5.20;;;;;;;;;;4994779;28;20104;-74
2022/10/19 02:43:57;;;;;;;24.45;5.20;;;;;;;;;;4994854;28;20430;-75
2022/10/19 02:46:33;;;;;;;28.13;5.32;;;;;;;;;;4977163;28;20397;-75
2022/10/19 02:49:01;;;;;;;22.52;4.85;;;;;;;;;;4994456;28;20054;-75
2022/10/19 02:51:35;;;;;;;23.58;5.10;;;;;;;;;;4994410;28;20041;-75
2022/10/19 02:54:01;;;;;;;23.23;5.32;;;;;;;;;;4994753;28;20022;-75
2022/10/19 02:56:27;;;;;;;20.00;5.30;;;;;;;;;;4994548;28;20498;-75
2022/10/19 02:58:53;;;;;;;22.02;5.63;;;;;;;;;;4994321;28;20093;-75
2022/10/19 03:01:18;;;;;;;19.52;5.18;;;;;;;;;;4994812;28;20018;-75
2022/10/19 03:03:43;;;;;;;22.77;5.25;;;;;;;;;;4994359;28;20105;-75
2022/10/19 03:06:09;;;;;;;20.92;5.10;;;;;;;;;;4994499;28;20023;-74
2022/10/19 03:08:34;;;;;;;26.38;5.20;;;;;;;;;;4994384;28;20065;-75
2022/10/19 03:11:00;;;;;;;27.83;5.43;;;;;;;;;;4976806;28;20122;-75
2022/10/19 03:13:26;;;;;;;24.10;5.07;;;;;;;;;;4994215;28;20441;-75
2022/10/19 03:15:51;;;;;;;21.17;5.22;;;;;;;;;;4976746;28;20375;-74
2022/10/19 03:18:17;;;;;;;18.88;4.97;;;;;;;;;;4994068;28;20485;-74
2022/10/19 03:20:42;;;;;;;23.77;5.35;;;;;;;;;;4994279;28;20080;-74
2022/10/19 03:23:07;;;;;;;23.75;5.10;;;;;;;;;;4994090;28;20030;-75
2022/10/19 03:25:33;;;;;;;22.40;5.25;;;;;;;;;;4993991;28;20018;-74
2022/10/19 03:27:58;;;;;;;22.05;5.18;;;;;;;;;;4976556;28;20390;-75
2022/10/19 03:30:24;;;;;;;21.02;5.53;;;;;;;;;;4994174;28;20027;-75
2022/10/19 03:32:49;;;;;;;19.88;4.82;;;;;;;;;;4994261;28;20034;-75
2022/10/19 03:35:15;;;;;;;22.30;5.53;;;;;;;;;;4993509;28;20027;-75
2022/10/19 03:37:40;;;;;;;26.58;5.28;;;;;;;;;;4993813;28;20030;-75
2022/10/19 03:40:06;;;;;;;26.20;5.05;;;;;;;;;;4993876;28;20446;-75
2022/10/19 03:42:32;;;;;;;16.23;5.00;;;;;;;;;;4993845;28;20032;-75
2022/10/19 03:44:57;;;;;;;19.95;5.15;;;;;;;;;;4994058;28;20034;-75
2022/10/19 03:47:22;;;;;;;22.42;5.63;;;;;;;;;;4993987;28;20030;-75
2022/10/19 03:49:49;;;;;;;22.02;5.32;;;;;;;;;;4976278;28;20030;-74
2022/10/19 03:52:16;;;;;;;26.23;5.25;;;;;;;;;;4993863;28;20025;-75
2022/10/19 03:54:42;;;;;;;17.17;5.35;;;;;;;;;;4994104;28;20030;-75
2022/10/19 03:57:07;;;;;;;20.98;5.30;;;;;;;;;;4993923;28;20109;-75
2022/10/19 03:59:32;;;;;;;24.05;5.18;;;;;;;;;;4993735;28;20113;-75
2022/10/19 04:01:58;;;;;;;23.58;4.65;;;;;;;;;;4993664;28;20030;-75
2022/10/19 04:04:23;;;;;;;22.73;5.15;;;;;;;;;;4993935;28;20030;-75
2022/10/19 04:06:49;;;;;;;17.60;5.03;;;;;;;;;;4993607;28;20030;-75
2022/10/19 04:09:17;;;;;;;22.75;5.32;;;;;;;;;;4993661;28;20018;-75
2022/10/19 04:11:43;;;;;;;27.13;6.10;;;;;;;;;;4993485;28;20106;-75
2022/10/19 04:14:11;;;;;;;24.25;5.47;;;;;;;;;;4993828;28;20022;-75
2022/10/19 04:16:37;;;;;;;18.67;5.40;;;;;;;;;;4993628;28;20412;-75
2022/10/19 04:19:02;;;;;;;19.35;5.07;;;;;;;;;;4993442;28;20482;-75
2022/10/19 04:21:29;;;;;;;25.23;5.20;;;;;;;;;;4993469;28;20023;-75
2022/10/19 04:24:12;;;;;;;24.25;5.53;;;;;;;;;;4993524;28;20101;-75
2022/10/19 04:26:42;;;;;;;22.40;5.32;;;;;;;;;;4993513;28;20470;-75
2022/10/19 04:29:08;;;;;;;22.45;4.97;;;;;;;;;;4993497;28;20065;-75
2022/10/19 04:31:34;;;;;;;17.80;5.57;;;;;;;;;;4993708;28;20042;-75
2022/10/19 04:33:59;;;;;;;17.23;5.07;;;;;;;;;;4993575;28;20038;-75
2022/10/19 04:36:24;;;;;;;22.88;5.55;;;;;;;;;;4993285;28;20053;-75
2022/10/19 04:38:50;;;;;;;18.48;4.97;;;;;;;;;;4993522;28;20043;-75
2022/10/19 04:41:18;;;;;;;17.83;4.90;;;;;;;;;;4993594;28;20394;-75
2022/10/19 04:43:44;;;;;;;17.35;5.07;;;;;;;;;;4976054;28;20034;-75
2022/10/19 04:46:13;;;;;;;25.83;5.35;;;;;;;;;;4993418;28;20085;-75
2022/10/19 04:48:39;;;;;;;20.10;5.32;;;;;;;;;;4996655;28;20037;-74
2022/10/19 04:51:05;;;;;;;21.23;5.38;;;;;;;;;;4996682;28;20069;-75
2022/10/19 04:53:31;;;;;;;23.48;5.65;;;;;;;;;;4996726;28;20030;-75
2022/10/19 04:55:57;;;;;;;20.67;5.20;;;;;;;;;;4996688;28;20478;-75
2022/10/19 04:58:22;;;;;;;23.45;5.53;;;;;;;;;;4996764;28;20030;-75
2022/10/19 05:00:48;;;;;;;22.13;5.05;;;;;;;;;;4996800;28;20057;-74
2022/10/19 05:03:14;;;;;;;23.15;5.00;;;;;;;;;;4996575;28;20042;-75
2022/10/19 05:05:39;;;;;;;21.50;5.40;;;;;;;;;;4996749;28;20061;-75
2022/10/19 05:08:05;;;;;;;15.07;4.78;;;;;;;;;;4978921;28;20026;-74
2022/10/19 05:10:30;;;;;;;26.65;5.38;;;;;;;;;;4996317;28;20181;-74
2022/10/19 05:12:55;;;;;;;25.40;5.38;;;;;;;;;;4996331;28;20026;-75
2022/10/19 05:15:21;;;;;;;22.23;5.18;;;;;;;;;;4996408;28;20037;-74
2022/10/19 05:17:47;;;;;;;16.08;4.85;;;;;;;;;;4996336;28;20117;-75
2022/10/19 05:20:12;;;;;;;22.33;5.05;;;;;;;;;;4996339;28;20035;-75
2022/10/19 05:22:38;;;;;;;16.15;5.03;;;;;;;;;;4996211;28;20034;-75
2022/10/19 05:25:05;;;;;;;20.27;5.00;;;;;;;;;;4996118;28;20038;-75
2022/10/19 05:27:30;;;;;;;21.30;4.90;;;;;;;;;;4995878;28;20076;-75
2022/10/19 05:29:56;;;;;;;22.90;5.18;;;;;;;;;;4996003;28;20425;-75
2022/10/19 05:32:22;;;;;;;19.20;5.28;;;;;;;;;;4996318;28;20034;-75
2022/10/19 05:34:47;;;;;;;25.20;5.10;;;;;;;;;;4978703;28;20034;-75
2022/10/19 05:37:14;;;;;;;22.63;5.63;;;;;;;;;;4995809;28;20137;-75
2022/10/19 05:39:39;;;;;;;19.90;5.63;;;;;;;;;;4996264;28;20089;-75
2022/10/19 05:42:05;;;;;;;24.42;5.38;;;;;;;;;;4995905;28;20035;-75
2022/10/19 05:44:30;;;;;;;18.40;5.50;;;;;;;;;;4978345;28;20463;-75
2022/10/19 05:46:55;;;;;;;24.88;5.93;;;;;;;;;;4995542;28;20030;-75
2022/10/19 05:49:21;;;;;;;20.90;6.15;;;;;;;;;;4995558;28;20027;-75
2022/10/19 05:51:47;;;;;;;19.73;5.85;;;;;;;;;;4995664;28;20027;-75
2022/10/19 05:54:13;;;;;;;21.83;5.72;;;;;;;;;;4995729;28;20071;-75
2022/10/19 05:56:40;;;;;;;20.35;5.70;;;;;;;;;;4977953;28;20033;-75
2022/10/19 05:59:07;;;;;;;19.90;5.50;;;;;;;;;;4977767;28;20026;-75
2022/10/19 06:01:34;;;;;;;20.55;4.82;;;;;;;;;;4995904;28;20030;-75
2022/10/19 06:04:01;;;;;;;21.88;5.50;;;;;;;;;;4995240;28;20022;-75
2022/10/19 06:06:27;;;;;;;18.35;5.45;;;;;;;;;;4995405;28;20027;-75
2022/10/19 06:08:54;;;;;;;18.42;5.72;;;;;;;;;;4977901;28;20446;-75
2022/10/19 06:11:26;;;;;;;26.10;5.60;;;;;;;;;;4995214;28;20023;-75
2022/10/19 06:13:54;;;;;;;26.80;5.95;;;;;;;;;;4995250;28;20041;-74
2022/10/19 06:16:22;;;;;;;13.13;5.25;;;;;;;;;;4995513;28;20030;-74
2022/10/19 06:18:48;;;;;;;17.52;5.80;;;;;;;;;;4995189;28;20114;-75
2022/10/19 06:21:17;;;;;;;24.40;5.80;;;;;;;;;;4994982;28;20061;-75
2022/10/19 06:23:43;;;;;;;23.38;6.15;;;;;;;;;;4994766;28;20037;-74
2022/10/19 06:26:11;;;;;;;25.33;6.00;;;;;;;;;;4995239;28;20026;-75
2022/10/19 06:28:39;;;;;;;21.88;5.30;;;;;;;;;;4994959;28;20045;-75
2022/10/19 06:31:05;;;;;;;19.27;5.63;;;;;;;;;;4995023;28;20045;-75
2022/10/19 06:33:30;;;;;;;16.00;5.60;;;;;;;;;;4995104;28;20037;-74
2022/10/19 06:36:04;;;;;;;18.70;5.53;;;;;;;;;;4994638;28;20035;-74
2022/10/19 06:38:29;;;;;;;17.83;5.30;;;;;;;;;;4994573;28;20027;-75
2022/10/19 06:40:58;;;;;;;26.25;5.70;;;;;;;;;;4977085;28;20032;-74
2022/10/19 06:43:23;;;;;;;21.95;6.05;;;;;;;;;;4994218;28;20034;-74
2022/10/19 06:45:48;;;;;;;23.17;5.68;;;;;;;;;;4994312;28;20053;-74
2022/10/19 06:48:14;;;;;;;22.45;6.05;;;;;;;;;;4994548;28;20054;-75
2022/10/19 06:50:39;;;;;;;17.10;5.57;;;;;;;;;;4994396;28;20426;-75
2022/10/19 06:53:05;;;;;;;21.45;5.68;;;;;;;;;;4994349;28;20412;-75
2022/10/19 06:55:30;;;;;;;18.58;5.15;;;;;;;;;;4994448;28;20154;-75
2022/10/19 06:57:58;;;;;;;21.45;5.60;;;;;;;;;;4993986;28;20121;-75
2022/10/19 07:00:23;;;;;;;19.20;6.05;;;;;;;;;;4976974;28;20049;-76
2022/10/19 07:02:48;;;;;;;20.38;6.05;;;;;;;;;;4994372;28;20030;-75
2022/10/19 07:05:14;;;;;;;15.88;5.70;;;;;;;;;;4994229;28;20036;-75
2022/10/19 07:07:39;;;;;;;18.95;5.47;;;;;;;;;;4994167;28;20034;-75
2022/10/19 07:10:05;;;;;;;16.10;5.63;;;;;;;;;;4994025;28;20023;-74
2022/10/19 07:12:30;;;;;;;19.67;5.88;;;;;;;;;;4976821;28;20459;-75
2022/10/19 07:14:56;;;;;;;19.15;5.60;;;;;;;;;;4994288;28;20814;-75
2022/10/19 07:17:22;;;;;;;19.85;5.57;;;;;;;;;;4994012;28;20041;-75
2022/10/19 07:19:47;;;;;;;27.67;6.03;;;;;;;;;;4994084;28;20030;-75
2022/10/19 07:22:13;;;;;;;25.02;6.13;;;;;;;;;;4994280;28;20040;-75
2022/10/19 07:24:38;;;;;;;23.58;5.70;;;;;;;;;;4993845;28;20394;-75
2022/10/19 07:27:04;;;;;;;22.83;5.65;;;;;;;;;;4993842;28;20026;-74
2022/10/19 07:29:29;;;;;;;16.50;5.55;;;;;;;;;;4993853;28;20033;-75
2022/10/19 07:31:54;;;;;;;18.00;5.35;;;;;;;;;;4976227;28;20400;-75
2022/10/19 07:34:20;;;;;;;16.45;5.50;;;;;;;;;;4993781;28;20030;-74
2022/10/19 07:36:46;;;;;;;24.30;5.82;;;;;;;;;;4993663;28;20405;-75
2022/10/19 07:39:15;;;;;;;17.63;5.40;;;;;;;;;;4993854;28;20049;-75
2022/10/19 07:41:41;;;;;;;16.92;5.32;;;;;;;;;;4994002;28;20060;-74
2022/10/19 07:44:06;;;;;;;21.48;5.10;;;;;;;;;;4993719;28;20101;-75
2022/10/19 07:46:32;;;;;;;17.88;4.97;;;;;;;;;;4993635;28;20030;-74
2022/10/19 07:48:59;;;;;;;25.20;5.35;;;;;;;;;;4993628;28;20037;-75
2022/10/19 07:51:25;;;;;;;28.33;5.13;;;;;;;;;;4993549;28;20026;-74
2022/10/19 07:53:51;;;;;;;18.42;4.97;;;;;;;;;;4993665;28;20035;-75
2022/10/19 07:56:22;;;;;;;16.20;4.70;;;;;;;;;;4976239;28;20030;-74
2022/10/19 07:58:49;;;;;;;17.10;4.55;;;;;;;;;;4993554;28;20070;-75
2022/10/19 08:01:18;;;;;;;15.98;4.45;;;;;;;;;;4993681;28;20101;-75
2022/10/19 08:03:44;;;;;;;16.48;4.55;;;;;;;;;;4993420;28;20030;-74
2022/10/19 08:06:12;;;;;;;14.38;4.55;;;;;;;;;;4993475;28;20034;-75
2022/10/19 08:08:38;;;;;;;15.30;5.07;;;;;;;;;;4993506;28;20026;-74
2022/10/19 08:11:08;;;;;;;17.50;4.72;;;;;;;;;;4993606;28;20038;-74
2022/10/19 08:13:34;;;;;;;13.02;4.30;;;;;;;;;;4993698;28;20054;-74
2022/10/19 08:15:59;;;;;;;17.95;4.43;;;;;;;;;;4993423;28;20034;-74
2022/10/19 08:18:24;;;;;;;15.00;4.82;;;;;;;;;;4993473;28;20045;-74
2022/10/19 08:20:50;;;;;;;13.45;4.20;;;;;;;;;;4993514;28;20356;-75
2022/10/19 08:23:15;;;;;;;13.50;4.07;;;;;;;;;;4996067;28;20022;-75
2022/10/19 08:25:40;;;;;;;14.90;4.50;;;;;;;;;;4997321;28;20026;-75
2022/10/19 08:28:06;;;;;;;12.38;4.20;;;;;;;;;;4997278;28;20034;-74
2022/10/19 08:30:34;;;;;;;14.75;4.30;;;;;;;;;;4997087;28;20080;-74
2022/10/19 08:32:59;;;;;;;16.15;4.45;;;;;;;;;;4997054;28;20037;-75
2022/10/19 08:35:25;;;;;;;19.10;4.68;;;;;;;;;;4997028;28;20050;-75
2022/10/19 08:37:50;;;;;;;11.63;4.20;;;;;;;;;;4996917;28;20034;-74
2022/10/19 08:40:20;;;;;;;11.52;3.65;;;;;;;;;;4996951;28;20032;-75
2022/10/19 08:42:58;;;;;;;13.63;4.20;;;;;;;;;;4996985;28;20496;-75
2022/10/19 08:46:00;;;;;;;13.57;4.05;;;;;;;;;;4996697;28;20040;-75
2022/10/19 08:48:31;;;;;;;16.38;4.32;;;;;;;;;;4929600;28;20050;-74
2022/10/19 08:50:59;;;;;;;17.75;4.50;;;;;;;;;;4996698;28;20034;-75
2022/10/19 08:53:31;;;;;;;13.57;4.45;;;;;;;;;;4996665;28;20073;-75
2022/10/19 08:56:27;;;;;;;16.30;4.38;;;;;;;;;;4978962;28;20026;-75
2022/10/19 08:59:08;;;;;;;12.93;4.30;;;;;;;;;;4979002;28;20038;-75
2022/10/19 09:01:38;;;;;;;13.40;4.63;;;;;;;;;;4996560;28;20174;-75
2022/10/19 09:04:16;;;;;;;12.15;4.32;;;;;;;;;;4996600;28;20030;-75
2022/10/19 09:06:56;;;;;;;20.00;5.03;;;;;;;;;;4997050;28;20109;-74
2022/10/19 09:09:23;;;;;;;13.02;4.68;;;;;;;;;;4979051;28;20088;-75
2022/10/19 09:11:51;;;;;;;20.65;4.75;;;;;;;;;;4996550;28;20405;-75
2022/10/19 09:14:39;;;;;;;22.80;4.97;;;;;;;;;;4996370;28;20378;-74
2022/10/19 09:17:11;;;;;;;15.52;5.03;;;;;;;;;;4978556;28;20038;-75
2022/10/19 09:19:36;;;;;;;21.30;5.63;;;;;;;;;;4978749;28;20029;-75
2022/10/19 09:22:33;;;;;;;21.20;5.40;;;;;;;;;;4996489;28;20014;-75
2022/10/19 09:25:12;;;;;;;23.60;5.53;;;;;;;;;;4978698;28;20041;-75
2022/10/19 09:27:39;;;;;;;22.52;5.35;;;;;;;;;;4996242;28;20027;-75
2022/10/19 09:30:26;;;;;;;21.20;5.25;;;;;;;;;;4996294;28;20023;-74
2022/10/19 09:33:00;;;;;;;19.90;4.90;;;;;;;;;;4995494;28;20073;-75
2022/10/19 09:35:31;;;;;;;17.77;4.90;;;;;;;;;;4995811;28;20418;-75
2022/10/19 09:37:56;;;;;;;23.15;5.25;;;;;;;;;;4995761;28;20042;-75
2022/10/19 09:40:27;;;;;;;21.45;5.28;;;;;;;;;;4995990;28;20026;-75
2022/10/19 09:42:57;;;;;;;16.15;4.80;;;;;;;;;;4995899;28;20025;-75
2022/10/19 09:45:32;;;;;;;19.23;5.65;;;;;;;;;;4995908;28;20033;-75
2022/10/19 09:47:58;;;;;;;22.55;5.65;;;;;;;;;;4995902;28;20029;-75
2022/10/19 09:50:26;;;;;;;21.67;5.15;;;;;;;;;;4995538;28;20062;-75
2022/10/19 09:52:58;;;;;;;15.18;4.63;;;;;;;;;;4995579;28;20031;-75
2022/10/19 09:55:40;;;;;;;18.70;5.13;;;;;;;;;;4995738;28;20026;-75
2022/10/19 09:58:14;;;;;;;25.63;5.55;;;;;;;;;;4995753;28;20052;-75
2022/10/19 10:00:42;;;;;;;21.58;5.22;;;;;;;;;;4995755;28;20386;-75
2022/10/19 10:03:25;;;;;;;20.17;5.32;;;;;;;;;;4995458;28;20526;-75
2022/10/19 10:05:52;;;;;;;18.52;5.63;;;;;;;;;;4995482;28;20053;-75
2022/10/19 10:08:21;;;;;;;20.23;5.40;;;;;;;;;;4995228;28;20080;-76
2022/10/19 10:11:03;;;;;;;24.20;5.20;;;;;;;;;;4995367;28;20034;-75
2022/10/19 10:13:29;;;;;;;21.30;5.53;;;;;;;;;;4995271;28;20018;-75
2022/10/19 10:15:59;;;;;;;23.73;5.43;;;;;;;;;;4995353;28;20033;-75
2022/10/19 10:18:25;;;;;;;20.20;5.20;;;;;;;;;;4995105;28;20022;-75
2022/10/19 10:21:18;;;;;;;19.83;5.05;;;;;;;;;;4977747;28;20258;-75
2022/10/19 10:23:58;;;;;;;22.83;5.05;;;;;;;;;;4995307;28;20109;-75
2022/10/19 10:26:24;;;;;;;17.20;5.25;;;;;;;;;;4994885;28;20117;-75
2022/10/19 10:28:50;;;;;;;16.63;5.28;;;;;;;;;;4994857;28;20105;-75
2022/10/19 10:31:22;;;;;;;19.05;5.80;;;;;;;;;;4977348;28;20045;-75
2022/10/19 10:34:04;;;;;;;20.17;5.10;;;;;;;;;;4994905;28;20022;-75
2022/10/19 10:36:30;;;;;;;21.58;4.78;;;;;;;;;;4994855;28;20391;-75
2022/10/19 10:39:05;;;;;;;19.88;4.95;;;;;;;;;;4994658;28;20038;-75
2022/10/19 10:41:39;;;;;;;17.30;5.10;;;;;;;;;;4977586;28;20054;-75
2022/10/19 10:44:15;;;;;;;23.90;5.13;;;;;;;;;;4994214;28;20034;-75
2022/10/19 10:46:55;;;;;;;25.75;5.40;;;;;;;;;;4994360;28;20030;-75
2022/10/19 10:49:25;;;;;;;;;;;;;;;;;;4995214;28;20378;-75
2022/10/19 10:51:55;;;;;;;21.90;4.82;;;;;;;;;;4994440;28;19969;-75
2022/10/19 10:54:31;;;;;;;18.63;5.03;;;;;;;;;;4994511;28;20109;-75
2022/10/19 10:57:17;;;;;;;19.05;4.78;;;;;;;;;;4994287;28;20090;-75
2022/10/19 11:00:11;;;;;;;19.90;4.80;;;;;;;;;;4976842;28;20019;-75
2022/10/19 11:02:55;;;;;;;19.23;5.38;;;;;;;;;;4994333;28;20493;-75
2022/10/19 11:05:44;;;;;;;19.80;5.07;;;;;;;;;;4994203;28;20038;-75
2022/10/19 11:08:32;;;;;;;23.77;5.05;;;;;;;;;;4994332;28;20026;-75
2022/10/19 11:11:13;;;;;;;22.88;5.25;;;;;;;;;;4993919;28;20026;-75
2022/10/19 11:13:52;;;;;;;16.73;5.10;;;;;;;;;;4993824;28;20026;-75
2022/10/19 11:16:23;;;;;;;21.80;5.10;;;;;;;;;;4994148;28;20022;-75
2022/10/19 11:19:11;;;;;;;17.92;5.25;;;;;;;;;;4976372;28;20080;-75
2022/10/19 11:21:40;;;;;;;22.40;5.22;;;;;;;;;;4993955;28;20041;-75
2022/10/19 11:24:38;;;;;;;17.48;5.28;;;;;;;;;;4994063;28;20098;-76
2022/10/19 11:27:40;;;;;;;22.30;5.00;;;;;;;;;;4956706;28;20080;-75
2022/10/19 11:30:20;;;;;;;24.13;5.20;;;;;;;;;;4994054;28;20026;-75
2022/10/19 11:33:12;;;;;;;20.67;5.10;;;;;;;;;;4993986;28;20533;-75
2022/10/19 11:35:43;;;;;;;19.60;4.90;;;;;;;;;;4976138;28;20053;-75
2022/10/19 11:38:21;;;;;;;20.08;5.10;;;;;;;;;;4976123;28;20065;-75
2022/10/19 11:41:17;;;;;;;22.23;5.22;;;;;;;;;;4993748;28;20033;-75
2022/10/19 11:43:59;;;;;;;24.83;5.40;;;;;;;;;;4993773;28;20030;-75
2022/10/19 11:46:28;;;;;;;22.83;5.93;;;;;;;;;;4993772;28;20089;-75
2022/10/19 11:49:31;;;;;;;18.38;4.63;;;;;;;;;;4976178;28;20498;-75
2022/10/19 11:52:13;;;;;;;26.55;5.30;;;;;;;;;;4976845;28;20035;-75
2022/10/19 11:54:58;;;;;;;20.73;5.38;;;;;;;;;;4976136;28;20027;-74
2022/10/19 11:57:31;;;;;;;24.10;5.82;;;;;;;;;;4996884;28;20030;-75
2022/10/19 12:00:10;;;;;;;24.23;5.13;;;;;;;;;;4997926;28;20019;-75
2022/10/19 12:02:54;;;;;;;22.58;5.40;;;;;;;;;;4980049;28;20026;-75
2022/10/19 12:05:49;;;;;;;25.30;5.50;;;;;;;;;;4997758;28;20089;-74
2022/10/19 12:08:27;;;;;;;20.83;4.60;;;;;;;;;;4997496;28;20084;-75
2022/10/19 12:11:17;;;;;;;25.65;5.53;;;;;;;;;;4997401;28;20037;-75
2022/10/19 12:13:58;;;;;;;29.38;5.35;;;;;;;;;;4997316;28;20093;-75
2022/10/19 12:16:34;;;;;;;25.48;5.18;;;;;;;;;;4997606;28;20038;-75
2022/10/19 12:19:03;;;;;;;24.58;5.60;;;;;;;;;;4997261;28;20026;-75
2022/10/19 12:21:39;;;;;;;27.83;5.50;;;;;;;;;;4979744;28;20037;-75
2022/10/19 12:24:13;;;;;;;21.52;5.07;;;;;;;;;;4997233;28;20034;-76
2022/10/19 12:26:39;;;;;;;32.90;5.63;;;;;;;;;;4997329;28;20077;-76
2022/10/19 12:29:11;;;;;;;31.23;5.65;;;;;;;;;;4996913;28;20026;-75
2022/10/19 12:31:37;;;;;;;25.33;5.30;;;;;;;;;;4996976;28;20165;-75
2022/10/19 12:34:19;;;;;;;26.90;5.57;;;;;;;;;;4997116;28;20570;-75
2022/10/19 12:37:03;;;;;;;25.10;5.60;;;;;;;;;;4996867;28;20050;-75
2022/10/19 12:39:48;;;;;;;21.63;5.40;;;;;;;;;;4997035;28;20030;-75
2022/10/19 12:42:38;;;;;;;18.20;5.10;;;;;;;;;;4996909;28;20029;-75
2022/10/19 12:45:15;;;;;;;29.73;5.38;;;;;;;;;;4996703;28;20065;-75
2022/10/19 12:48:17;;;;;;;27.90;5.40;;;;;;;;;;4979105;28;20022;-75
2022/10/19 12:50:49;;;;;;;23.48;5.65;;;;;;;;;;4979263;28;20034;-76
2022/10/19 12:53:47;;;;;;;23.73;5.22;;;;;;;;;;4997137;28;20472;-75
2022/10/19 12:56:18;;;;;;;24.13;5.35;;;;;;;;;;4996885;28;20471;-75
2022/10/19 12:58:51;;;;;;;19.45;5.20;;;;;;;;;;4996326;28;20030;-75
2022/10/19 13:01:20;;;;;;;22.98;5.40;;;;;;;;;;4995899;28;20479;-75
2022/10/19 13:03:48;;;;;;;24.13;5.57;;;;;;;;;;4996109;28;20076;-75
2022/10/19 13:06:22;;;;;;;22.08;4.78;;;;;;;;;;4996559;28;20026;-75
2022/10/19 13:08:57;;;;;;;19.48;5.07;;;;;;;;;;4977876;28;20033;-75
2022/10/19 13:11:23;;;;;;;26.02;5.70;;;;;;;;;;4996433;28;20081;-75
2022/10/19 13:14:03;;;;;;;22.20;4.45;;;;;;;;;;4996402;28;20022;-75
2022/10/19 13:16:29;;;;;;;;;;;;;;;;;;4979236;28;20547;-75
2022/10/19 13:19:00;;;;;;;21.90;4.73;;;;;;;;;;4996139;28;19974;-76
2022/10/19 13:22:00;;;;;;;18.75;5.32;;;;;;;;;;4996057;28;20280;-75
2022/10/19 13:24:25;;;;;;;17.75;5.28;;;;;;;;;;4978545;28;20038;-76
2022/10/19 13:26:57;;;;;;;17.52;5.38;;;;;;;;;;4996178;28;20030;-76
2022/10/19 13:29:38;;;;;;;24.77;5.10;;;;;;;;;;4978643;28;20034;-75
2022/10/19 13:32:37;;;;;;;21.35;4.85;;;;;;;;;;4996262;28;20030;-75
2022/10/19 13:35:21;;;;;;;26.83;5.20;;;;;;;;;;4995800;28;20022;-75
2022/10/19 13:38:09;;;;;;;31.67;6.03;;;;;;;;;;4976453;28;20042;-75
2022/10/19 13:40:57;;;;;;;20.05;5.57;;;;;;;;;;4976350;28;20027;-75
2022/10/19 13:43:25;;;;;;;26.92;5.63;;;;;;;;;;4976330;28;20495;-75
2022/10/19 13:46:11;;;;;;;25.77;5.28;;;;;;;;;;4958825;28;20050;-75
2022/10/19 13:48:44;;;;;;;20.23;5.28;;;;;;;;;;4958704;28;20085;-75
2022/10/19 13:51:24;;;;;;;23.08;5.32;;;;;;;;;;4976084;28;20031;-75
2022/10/19 13:54:16;;;;;;;24.52;5.03;;;;;;;;;;4975988;28;20550;-75
2022/10/19 13:57:02;;;;;;;27.75;5.45;;;;;;;;;;4939307;28;20039;-75
2022/10/19 14:00:06;;;;;;;24.20;5.70;;;;;;;;;;4975910;28;20479;-75
2022/10/19 14:03:06;;;;;;;20.98;5.43;;;;;;;;;;4976086;28;20498;-75
2022/10/19 14:05:51;;;;;;;;;;;;;;;;;;4958926;28;20081;-75
2022/10/19 14:08:58;;;;;;;21.25;5.20;;;;;;;;;;4976064;28;20301;-75
2022/10/19 14:11:29;;;;;;;20.08;5.30;;;;;;;;;;4975056;28;20081;-75
2022/10/19 14:14:10;;;;;;;25.63;5.70;;;;;;;;;;4975703;28;20034;-75
2022/10/19 14:16:54;;;;;;;29.83;5.45;;;;;;;;;;4975889;28;20039;-76
2022/10/19 14:19:25;;;;;;;21.90;5.78;;;;;;;;;;4975920;28;20030;-75
2022/10/19 14:21:54;;;;;;;25.83;5.68;;;;;;;;;;4975876;28;20026;-76
2022/10/19 14:24:40;;;;;;;20.48;6.32;;;;;;;;;;4958152;28;20399;-75
2022/10/19 14:27:06;;;;;;;24.20;6.00;;;;;;;;;;4975056;28;20045;-75
2022/10/19 14:29:46;;;;;;;24.10;5.78;;;;;;;;;;4975473;28;20023;-76
2022/10/19 14:32:12;;;;;;;20.08;5.50;;;;;;;;;;4958029;28;20494;-75
2022/10/19 14:34:42;;;;;;;26.67;5.93;;;;;;;;;;4975496;28;20037;-75
2022/10/19 14:37:37;;;;;;;29.27;5.90;;;;;;;;;;4974234;28;20133;-75
2022/10/19 14:40:29;;;;;;;24.52;5.95;;;;;;;;;;4977936;28;20426;-76
2022/10/19 14:42:58;;;;;;;26.42;5.38;;;;;;;;;;4986415;28;20094;-76
2022/10/19 14:45:29;;;;;;;21.75;5.60;;;;;;;;;;4994693;28;20037;-75
2022/10/19 14:48:00;;;;;;;21.95;5.90;;;;;;;;;;4994626;28;20109;-75
2022/10/19 14:50:33;;;;;;;21.95;5.63;;;;;;;;;;4994773;28;20084;-75
2022/10/19 14:53:17;;;;;;;21.60;5.68;;;;;;;;;;4994244;28;20389;-75
2022/10/19 14:55:43;;;;;;;26.65;5.68;;;;;;;;;;4994518;28;20486;-75
2022/10/19 14:58:15;;;;;;;22.85;5.40;;;;;;;;;;4994329;28;20033;-75